createdAt,value
2019-03-11T00:01:56.011Z,54519.46
2019-03-11T00:04:27.580Z,54627.34
2019-03-11T00:06:58.483Z,54699.58
2019-03-11T00:09:29.181Z,54804.58
2019-03-11T00:12:00.369Z,54880.68
2019-03-11T00:14:31.078Z,54971.23
2019-03-11T00:17:01.696Z,54961.60
2019-03-11T00:19:32.427Z,54976.05
2019-03-11T00:22:03.048Z,54929.81
2019-03-11T00:24:33.700Z,54945.22
2019-03-11T00:27:04.327Z,54937.51
2019-03-11T00:29:35.358Z,54979.90
2019-03-11T00:32:05.995Z,54996.28
2019-03-11T00:34:36.703Z,54979.90
2019-03-11T00:37:07.296Z,55001.09
2019-03-11T00:39:37.957Z,54986.64
2019-03-11T00:42:08.620Z,55016.51
2019-03-11T00:44:39.314Z,54971.23
2019-03-11T00:47:09.905Z,54905.72
2019-03-11T00:49:40.488Z,54898.98
2019-03-11T00:52:11.140Z,54777.61
2019-03-11T00:54:42.117Z,54593.62
2019-03-11T00:57:12.705Z,54380.76
2019-03-11T00:59:43.543Z,54256.51
2019-03-11T01:02:14.136Z,54080.26
2019-03-11T01:04:44.767Z,54025.37
2019-03-11T01:07:15.417Z,53913.65
2019-03-11T01:09:46.007Z,53782.68
2019-03-11T01:12:16.602Z,53699.87
2019-03-11T01:14:47.298Z,53592.02
2019-03-11T01:17:17.897Z,53536.16
2019-03-11T01:19:48.501Z,53417.73
2019-03-11T01:22:19.206Z,53398.47
2019-03-11T01:24:49.770Z,53354.18
2019-03-11T01:27:20.779Z,53281.00
2019-03-11T01:29:51.664Z,53204.93
2019-03-11T01:32:22.349Z,53108.65
2019-03-11T01:34:53.338Z,53065.33
2019-03-11T01:37:24.099Z,53015.26
2019-03-11T01:39:54.842Z,52986.37
2019-03-11T01:42:25.485Z,53083.62
2019-03-11T01:44:56.089Z,53076.88
2019-03-11T01:47:26.741Z,53047.03
2019-03-11T01:49:57.350Z,53099.99
2019-03-11T01:52:27.939Z,53099.99
2019-03-11T01:54:58.635Z,53094.21
2019-03-11T01:57:29.220Z,53080.73
2019-03-11T01:59:59.947Z,53104.80
2019-03-11T02:02:30.518Z,53122.13
2019-03-11T02:05:01.179Z,53139.46
2019-03-11T02:07:31.752Z,53080.73
2019-03-11T02:10:02.417Z,53082.66
2019-03-11T02:12:32.989Z,53022.96
2019-03-11T02:15:03.842Z,52978.68
2019-03-11T02:17:34.414Z,52969.05
2019-03-11T02:20:05.491Z,52947.87
2019-03-11T02:22:36.224Z,52915.13
2019-03-11T02:25:07.689Z,52896.84
2019-03-11T02:27:38.309Z,52863.14
2019-03-11T02:30:11.613Z,52788.05
2019-03-11T02:32:42.192Z,52811.16
2019-03-11T02:35:12.884Z,52815.01
2019-03-11T02:37:43.478Z,52841.00
2019-03-11T02:40:14.550Z,52819.82
2019-03-11T02:42:45.131Z,52798.64
2019-03-11T02:45:15.863Z,52764.95
2019-03-11T02:47:46.533Z,52741.84
2019-03-11T02:50:17.145Z,52791.90
2019-03-11T02:52:47.733Z,52811.16
2019-03-11T02:55:18.512Z,52858.33
2019-03-11T02:57:49.382Z,52863.14
2019-03-11T03:00:20.779Z,52918.98
2019-03-11T03:03:10.433Z,52940.16
2019-03-11T03:05:43.883Z,53029.70
2019-03-11T03:08:14.562Z,53033.55
2019-03-11T03:10:45.166Z,53076.88
2019-03-11T03:13:16.956Z,53136.57
2019-03-11T03:15:47.534Z,53129.84
2019-03-11T03:18:18.655Z,53133.68
2019-03-11T03:20:49.259Z,53137.54
2019-03-11T03:23:20.108Z,53124.05
2019-03-11T03:25:50.701Z,53160.64
2019-03-11T03:28:21.465Z,53143.31
2019-03-11T03:30:52.370Z,53172.20
2019-03-11T03:33:23.079Z,53134.65
2019-03-11T03:35:53.711Z,53138.50
2019-03-11T03:38:30.439Z,53129.84
2019-03-11T03:40:56.813Z,53099.02
2019-03-11T03:43:27.637Z,53134.65
2019-03-11T03:45:58.528Z,53127.91
2019-03-11T03:48:29.472Z,53136.57
2019-03-11T03:51:00.131Z,53143.31
2019-03-11T03:53:30.715Z,53196.27
2019-03-11T03:56:01.425Z,53212.64
2019-03-11T03:58:32.009Z,53158.72
2019-03-11T04:01:02.685Z,53202.05
2019-03-11T04:03:33.278Z,53179.90
2019-03-11T04:06:03.995Z,53189.53
2019-03-11T04:08:35.005Z,53161.61
2019-03-11T04:11:06.069Z,53099.99
2019-03-11T04:13:36.648Z,53093.25
2019-03-11T04:16:07.472Z,53177.98
2019-03-11T04:18:56.049Z,53332.99
2019-03-11T04:21:26.688Z,53367.66
2019-03-11T04:23:58.314Z,53504.39
2019-03-11T04:26:32.718Z,53548.68
2019-03-11T04:29:03.309Z,53552.54
2019-03-11T04:31:34.018Z,53514.98
2019-03-11T04:34:04.811Z,53522.68
2019-03-11T04:36:35.696Z,53453.36
2019-03-11T04:39:07.997Z,53420.61
2019-03-11T04:41:38.757Z,53383.06
2019-03-11T04:44:09.346Z,53307.96
2019-03-11T04:46:40.101Z,53270.41
2019-03-11T04:49:10.691Z,53196.27
2019-03-11T04:51:41.500Z,53114.43
2019-03-11T04:54:12.154Z,53077.84
2019-03-11T04:56:42.938Z,52974.82
2019-03-11T04:59:14.804Z,52962.31
2019-03-11T05:01:45.532Z,52892.99
2019-03-11T05:04:16.124Z,52889.14
2019-03-11T05:06:47.226Z,52793.83
2019-03-11T05:09:17.938Z,52766.87
2019-03-11T05:11:48.670Z,52715.85
2019-03-11T05:14:19.562Z,52682.16
2019-03-11T05:16:50.352Z,52646.54
2019-03-11T05:19:21.022Z,52623.43
2019-03-11T05:21:52.729Z,52621.51
2019-03-11T05:24:24.004Z,52536.79
2019-03-11T05:26:54.730Z,52557.01
2019-03-11T05:29:25.444Z,52530.05
2019-03-11T05:31:56.196Z,52513.69
2019-03-11T05:34:26.822Z,52514.65
2019-03-11T05:36:57.443Z,52533.91
2019-03-11T05:39:28.182Z,52522.36
2019-03-11T05:41:58.775Z,52550.27
2019-03-11T05:44:29.365Z,52490.59
2019-03-11T05:47:00.088Z,52439.57
2019-03-11T05:49:30.674Z,52373.15
2019-03-11T05:52:01.248Z,52415.50
2019-03-11T05:54:31.867Z,52511.77
2019-03-11T05:57:02.449Z,52725.48
2019-03-11T05:59:33.049Z,52924.76
2019-03-11T06:02:03.642Z,53063.40
2019-03-11T06:04:34.364Z,53278.11
2019-03-11T06:07:05.016Z,53412.91
2019-03-11T06:09:35.605Z,53535.20
2019-03-11T06:12:06.200Z,53575.64
2019-03-11T06:14:36.901Z,53592.98
2019-03-11T06:17:07.855Z,53618.02
2019-03-11T06:19:38.856Z,53612.23
2019-03-11T06:22:18.989Z,53629.57
2019-03-11T06:24:49.574Z,53648.83
2019-03-11T06:27:20.521Z,53645.94
2019-03-11T06:29:51.282Z,53664.23
2019-03-11T06:32:21.907Z,53693.13
2019-03-11T06:34:52.500Z,53687.35
2019-03-11T06:37:23.256Z,53707.57
2019-03-11T06:39:53.869Z,53777.87
2019-03-11T06:42:24.474Z,53834.68
2019-03-11T06:44:55.136Z,53888.61
2019-03-11T06:47:26.035Z,53986.84
2019-03-11T06:49:56.616Z,54072.56
2019-03-11T06:52:27.329Z,54191.02
2019-03-11T06:54:58.005Z,54323.93
2019-03-11T06:57:28.614Z,54463.59
2019-03-11T06:59:59.423Z,54546.43
2019-03-11T07:02:30.368Z,54632.15
2019-03-11T07:05:02.604Z,54740.04
2019-03-11T07:07:33.845Z,54773.75
2019-03-11T07:10:05.049Z,54837.33
2019-03-11T07:12:36.020Z,54862.38
2019-03-11T07:15:07.636Z,54914.39
2019-03-11T07:17:38.352Z,54920.17
2019-03-11T07:20:11.223Z,54912.46
2019-03-11T07:22:41.831Z,54924.99
2019-03-11T07:25:12.919Z,54892.24
2019-03-11T07:27:43.524Z,54853.71
2019-03-11T07:30:14.615Z,54843.11
2019-03-11T07:32:45.635Z,54762.20
2019-03-11T07:35:16.233Z,54726.55
2019-03-11T07:37:47.026Z,54617.71
2019-03-11T07:40:28.587Z,54569.54
2019-03-11T07:42:50.112Z,54483.82
2019-03-11T07:45:20.769Z,54459.74
2019-03-11T07:47:51.562Z,54376.91
2019-03-11T07:50:22.145Z,54311.41
2019-03-11T07:52:52.933Z,54225.69
2019-03-11T07:55:23.655Z,54182.35
2019-03-11T07:57:54.252Z,54095.67
2019-03-11T08:00:25.351Z,54057.15
2019-03-11T08:02:56.078Z,54030.18
2019-03-11T08:05:27.059Z,53960.84
2019-03-11T08:07:57.975Z,53996.48
2019-03-11T08:10:28.877Z,53957.95
2019-03-11T08:12:59.488Z,53980.11
2019-03-11T08:15:30.079Z,53951.21
2019-03-11T08:18:01.003Z,53942.54
2019-03-11T08:20:31.823Z,53927.14
2019-03-11T08:23:02.417Z,53932.91
2019-03-11T08:25:33.481Z,53908.84
2019-03-11T08:28:04.473Z,53830.83
2019-03-11T08:30:35.066Z,53804.83
2019-03-11T08:33:05.771Z,53774.98
2019-03-11T08:35:36.368Z,53679.64
2019-03-11T08:38:06.977Z,53581.42
2019-03-11T08:40:37.656Z,53529.43
2019-03-11T08:43:08.876Z,53449.50
2019-03-11T08:45:39.462Z,53382.10
2019-03-11T08:48:10.167Z,53252.11
2019-03-11T08:50:40.777Z,53165.46
2019-03-11T08:53:11.426Z,53069.18
2019-03-11T08:55:42.073Z,52915.13
2019-03-11T08:58:12.853Z,52815.01
2019-03-11T09:00:43.846Z,52628.25
2019-03-11T09:03:14.521Z,52589.74
2019-03-11T09:05:45.317Z,52518.50
2019-03-11T09:08:15.949Z,52435.72
2019-03-11T09:10:46.562Z,52341.38
2019-03-11T09:13:17.300Z,52202.77
2019-03-11T09:15:47.976Z,52045.88
2019-03-11T09:18:18.589Z,51931.34
2019-03-11T09:20:49.315Z,51911.13
2019-03-11T09:23:19.906Z,51892.85
2019-03-11T09:25:50.515Z,51868.79
2019-03-11T09:28:21.321Z,51842.80
2019-03-11T09:30:52.087Z,51760.03
2019-03-11T09:33:22.701Z,51774.46
2019-03-11T09:35:53.409Z,51703.25
2019-03-11T09:38:24.347Z,51717.68
2019-03-11T09:40:55.359Z,51635.88
2019-03-11T09:43:27.220Z,51648.39
2019-03-11T09:45:58.065Z,51648.39
2019-03-11T09:48:29.036Z,51580.06
2019-03-11T09:50:59.776Z,51554.08
2019-03-11T09:53:30.343Z,51562.74
2019-03-11T09:56:00.968Z,51605.08
2019-03-11T09:58:31.764Z,51495.37
2019-03-11T10:01:02.370Z,51473.24
2019-03-11T10:03:33.006Z,51403.95
2019-03-11T10:06:03.735Z,51386.63
2019-03-11T10:08:34.748Z,51310.61
2019-03-11T10:11:05.357Z,51249.98
2019-03-11T10:13:36.129Z,51273.08
2019-03-11T10:16:06.785Z,51257.68
2019-03-11T10:18:37.383Z,51334.66
2019-03-11T10:21:08.556Z,51351.99
2019-03-11T10:23:39.128Z,51444.37
2019-03-11T10:26:10.130Z,51573.32
2019-03-11T10:28:40.862Z,51646.46
2019-03-11T10:31:11.500Z,51717.68
2019-03-11T10:33:42.103Z,51755.22
2019-03-11T10:36:12.834Z,51800.45
2019-03-11T10:38:43.437Z,51812.96
2019-03-11T10:41:14.067Z,51839.91
2019-03-11T10:43:44.834Z,51883.22
2019-03-11T10:46:15.450Z,51830.29
2019-03-11T10:48:46.084Z,51848.57
2019-03-11T10:51:16.701Z,51891.88
2019-03-11T10:53:47.612Z,52004.49
2019-03-11T10:56:18.207Z,52149.83
2019-03-11T10:58:53.111Z,52219.14
2019-03-11T11:01:23.816Z,52350.05
2019-03-11T11:03:54.419Z,52394.32
2019-03-11T11:06:25.314Z,52451.12
2019-03-11T11:08:56.225Z,52495.40
2019-03-11T11:11:26.818Z,52497.32
2019-03-11T11:13:57.523Z,52475.18
2019-03-11T11:16:28.094Z,52555.08
2019-03-11T11:18:58.761Z,52762.06
2019-03-11T11:21:29.497Z,52901.65
2019-03-11T11:24:00.082Z,52969.05
2019-03-11T11:26:30.661Z,53023.93
2019-03-11T11:29:01.418Z,52690.82
2019-03-11T11:31:32.508Z,52542.57
2019-03-11T11:34:03.106Z,52186.41
2019-03-11T11:36:34.192Z,52047.80
2019-03-11T11:39:06.417Z,52017.97
2019-03-11T11:41:37.040Z,52051.66
2019-03-11T11:44:07.760Z,52180.63
2019-03-11T11:46:38.696Z,52143.10
2019-03-11T11:49:09.354Z,52104.59
2019-03-11T11:51:40.029Z,51997.76
2019-03-11T11:54:10.634Z,51619.52
2019-03-11T11:56:41.366Z,51448.22
2019-03-11T11:59:11.995Z,51353.91
2019-03-11T12:01:43.309Z,51348.14
2019-03-11T12:04:13.933Z,51377.97
2019-03-11T12:06:44.882Z,51507.88
2019-03-11T12:09:15.492Z,51627.22
2019-03-11T12:11:46.244Z,51726.34
2019-03-11T12:14:16.841Z,51838.95
2019-03-11T12:16:47.435Z,52080.53
2019-03-11T12:19:18.134Z,52513.69
2019-03-11T12:21:48.700Z,52695.63
2019-03-11T12:24:19.299Z,52871.81
2019-03-11T12:26:49.937Z,52922.84
2019-03-11T12:29:20.865Z,52835.23
2019-03-11T12:31:51.441Z,52871.81
2019-03-11T12:34:22.122Z,52769.76
2019-03-11T12:36:52.699Z,52549.31
2019-03-11T12:39:24.056Z,52305.77
2019-03-11T12:41:54.757Z,52306.73
2019-03-11T12:44:25.680Z,52187.37
2019-03-11T12:46:56.282Z,52183.52
2019-03-11T12:49:27.031Z,51939.04
2019-03-11T12:51:57.626Z,51856.27
2019-03-11T12:54:28.212Z,51630.11
2019-03-11T12:56:58.933Z,51902.47
2019-03-11T12:59:29.535Z,52013.16
2019-03-11T13:02:00.238Z,52113.26
2019-03-11T13:04:30.928Z,52130.58
2019-03-11T13:07:01.931Z,52231.65
2019-03-11T13:09:32.749Z,52252.82
2019-03-11T13:12:03.741Z,52285.55
2019-03-11T13:14:34.327Z,52241.27
2019-03-11T13:17:05.382Z,52284.59
2019-03-11T13:19:36.219Z,52321.17
2019-03-11T13:22:07.557Z,52298.07
2019-03-11T13:24:38.543Z,52354.86
2019-03-11T13:27:09.549Z,52336.57
2019-03-11T13:29:40.169Z,52362.56
2019-03-11T13:32:10.793Z,52225.88
2019-03-11T13:34:41.696Z,52336.57
2019-03-11T13:37:12.341Z,52264.37
2019-03-11T13:39:42.946Z,52248.98
2019-03-11T13:42:13.687Z,52257.64
2019-03-11T13:44:44.285Z,52313.47
2019-03-11T13:47:15.414Z,52376.04
2019-03-11T13:49:46.170Z,52421.28
2019-03-11T13:52:16.826Z,52517.54
2019-03-11T13:54:47.532Z,52511.77
2019-03-11T13:57:18.404Z,52629.21
2019-03-11T13:59:49.009Z,52674.45
2019-03-11T14:02:19.697Z,52620.55
2019-03-11T14:04:50.779Z,52678.30
2019-03-11T14:07:21.526Z,52707.19
2019-03-11T14:09:52.147Z,52728.37
2019-03-11T14:12:22.740Z,52724.52
2019-03-11T14:14:53.506Z,52591.66
2019-03-11T14:17:24.125Z,52525.24
2019-03-11T14:19:54.788Z,52565.67
2019-03-11T14:22:25.880Z,52531.98
2019-03-11T14:24:56.472Z,52377.96
2019-03-11T14:27:27.071Z,52332.72
2019-03-11T14:29:57.801Z,52337.53
2019-03-11T14:32:28.456Z,52281.70
2019-03-11T14:34:59.501Z,51971.77
2019-03-11T14:37:30.339Z,51952.52
2019-03-11T14:40:00.929Z,51870.71
2019-03-11T14:42:31.886Z,51644.54
2019-03-11T14:45:02.957Z,51646.46
2019-03-11T14:47:33.594Z,51586.80
2019-03-11T14:50:04.303Z,51388.55
2019-03-11T14:52:34.910Z,51370.27
2019-03-11T14:55:05.880Z,51523.28
2019-03-11T14:57:36.587Z,51615.67
2019-03-11T15:00:10.254Z,51688.81
2019-03-11T15:02:41.066Z,51706.14
2019-03-11T15:05:11.944Z,51753.29
2019-03-11T15:07:42.701Z,51757.14
2019-03-11T15:10:15.669Z,51819.70
2019-03-11T15:12:46.267Z,51954.45
2019-03-11T15:15:18.110Z,52106.52
2019-03-11T15:17:48.695Z,52165.23
2019-03-11T15:20:19.309Z,52272.07
2019-03-11T15:22:49.961Z,52473.26
2019-03-11T15:25:21.143Z,52646.54
2019-03-11T15:27:51.760Z,52825.60
2019-03-11T15:30:22.533Z,52960.38
2019-03-11T15:32:53.223Z,53177.01
2019-03-11T15:35:23.816Z,53169.31
2019-03-11T15:37:54.549Z,53288.70
2019-03-11T15:40:25.321Z,53268.48
2019-03-11T15:42:55.982Z,53346.47
2019-03-11T15:45:37.825Z,53443.72
2019-03-11T15:47:59.188Z,53443.72
2019-03-11T15:50:30.313Z,53378.25
2019-03-11T15:53:01.017Z,53191.45
2019-03-11T15:55:31.610Z,52567.60
2019-03-11T15:58:02.394Z,52261.49
2019-03-11T16:00:33.112Z,51728.27
2019-03-11T16:03:03.831Z,51335.63
2019-03-11T16:05:34.477Z,50969.97
2019-03-11T16:08:05.051Z,50831.42
2019-03-11T16:10:35.734Z,50740.02
2019-03-11T16:13:06.359Z,51057.54
2019-03-11T16:15:37.047Z,51340.44
2019-03-11T16:18:07.723Z,51483.82
2019-03-11T16:20:38.413Z,51595.46
2019-03-11T16:23:08.993Z,51735.01
2019-03-11T16:25:40.647Z,51881.30
2019-03-11T16:28:11.239Z,51838.95
2019-03-11T16:30:41.828Z,51835.10
2019-03-11T16:33:12.529Z,51853.39
2019-03-11T16:35:43.119Z,51885.15
2019-03-11T16:38:13.709Z,52094.97
2019-03-11T16:40:44.484Z,52455.93
2019-03-11T16:43:15.076Z,52902.62
2019-03-11T16:45:45.662Z,53348.40
2019-03-11T16:48:16.326Z,53677.72
2019-03-11T16:50:47.280Z,53983.96
2019-03-11T16:53:17.878Z,54224.73
2019-03-11T16:55:50.256Z,54435.66
2019-03-11T16:58:21.154Z,54662.98
2019-03-11T17:00:53.254Z,54786.28
2019-03-11T17:03:23.975Z,55017.47
2019-03-11T17:05:54.911Z,55102.25
2019-03-11T17:08:25.703Z,55203.40
2019-03-11T17:10:56.416Z,55257.36
2019-03-11T17:13:27.393Z,55335.39
2019-03-11T17:15:58.294Z,55369.11
2019-03-11T17:18:29.011Z,55422.10
2019-03-11T17:20:59.624Z,55435.59
2019-03-11T17:23:30.291Z,55497.25
2019-03-11T17:26:00.853Z,55229.41
2019-03-11T17:28:33.803Z,55226.52
2019-03-11T17:31:03.910Z,55230.38
2019-03-11T17:33:34.499Z,55231.34
2019-03-11T17:36:05.432Z,55155.23
2019-03-11T17:38:36.112Z,55175.46
2019-03-11T17:41:06.861Z,55168.72
2019-03-11T17:43:37.544Z,55132.11
2019-03-11T17:46:08.195Z,55130.18
2019-03-11T17:48:38.784Z,55103.21
2019-03-11T17:51:09.360Z,55114.77
2019-03-11T17:53:40.001Z,55135.96
2019-03-11T17:56:10.592Z,55169.68
2019-03-11T17:58:41.400Z,55172.57
2019-03-11T18:01:12.196Z,55158.12
2019-03-11T18:03:42.944Z,55122.48
2019-03-11T18:06:13.589Z,55117.66
2019-03-11T18:08:44.530Z,55112.84
2019-03-11T18:11:15.260Z,55112.84
2019-03-11T18:13:45.806Z,55050.23
2019-03-11T18:16:16.390Z,55074.31
2019-03-11T18:18:47.445Z,54989.54
2019-03-11T18:21:18.053Z,54974.12
2019-03-11T18:23:48.985Z,54939.44
2019-03-11T18:26:19.656Z,54811.32
2019-03-11T18:28:50.259Z,54775.68
2019-03-11T18:31:20.941Z,54715.96
2019-03-11T18:33:51.665Z,54628.30
2019-03-11T18:36:22.290Z,54531.98
2019-03-11T18:38:52.937Z,54453.00
2019-03-11T18:41:23.616Z,54323.93
2019-03-11T18:43:54.260Z,54257.48
2019-03-11T18:46:24.870Z,54102.41
2019-03-11T18:48:55.613Z,53950.25
2019-03-11T18:51:26.305Z,53848.17
2019-03-11T18:53:57.215Z,53710.46
2019-03-11T18:56:27.974Z,53589.12
2019-03-11T18:58:58.586Z,53542.91
2019-03-11T19:01:29.169Z,53362.84
2019-03-11T19:04:00.743Z,53230.93
2019-03-11T19:06:31.353Z,53124.05
2019-03-11T19:09:02.064Z,53022.96
2019-03-11T19:11:32.721Z,52873.73
2019-03-11T19:14:03.377Z,52764.95
2019-03-11T19:16:34.047Z,52693.71
2019-03-11T19:19:04.754Z,52642.69
2019-03-11T19:21:35.336Z,52547.38
2019-03-11T19:24:06.253Z,52498.29
2019-03-11T19:26:36.873Z,52401.06
2019-03-11T19:29:07.458Z,52431.87
2019-03-11T19:31:38.436Z,52340.42
2019-03-11T19:34:09.194Z,52348.12
2019-03-11T19:36:39.829Z,52288.44
2019-03-11T19:39:14.069Z,52288.44
2019-03-11T19:41:44.659Z,52289.40
2019-03-11T19:44:15.248Z,52311.54
2019-03-11T19:46:45.876Z,52324.05
2019-03-11T19:49:16.499Z,52261.49
2019-03-11T19:51:47.112Z,52258.60
2019-03-11T19:54:17.776Z,52272.07
2019-03-11T19:56:48.387Z,52260.53
2019-03-11T19:59:19.200Z,52268.23
2019-03-11T20:01:49.929Z,52218.17
2019-03-11T20:04:20.583Z,52236.46
2019-03-11T20:06:51.177Z,52233.57
2019-03-11T20:09:21.905Z,52234.54
2019-03-11T20:11:54.080Z,52250.90
2019-03-11T20:14:24.890Z,52268.23
2019-03-11T20:16:56.151Z,52293.25
2019-03-11T20:19:26.719Z,52315.39
2019-03-11T20:21:57.747Z,52332.72
2019-03-11T20:24:28.462Z,52328.87
2019-03-11T20:26:59.163Z,52385.66
2019-03-11T20:29:29.852Z,52428.02
2019-03-11T20:32:00.550Z,52480.96
2019-03-11T20:34:31.174Z,52580.11
2019-03-11T20:37:01.783Z,52625.36
2019-03-11T20:39:32.503Z,52784.20
2019-03-11T20:42:03.083Z,52969.05
2019-03-11T20:44:33.754Z,53208.79
2019-03-11T20:47:04.440Z,53401.36
2019-03-11T20:49:35.281Z,53561.20
2019-03-11T20:52:05.987Z,53667.12
2019-03-11T20:54:36.994Z,53767.28
2019-03-11T20:57:07.601Z,53862.61
2019-03-11T20:59:38.288Z,53929.06
2019-03-11T21:02:08.960Z,53926.17
2019-03-11T21:04:39.910Z,53966.62
2019-03-11T21:07:10.716Z,54009.00
2019-03-11T21:09:41.351Z,53985.88
2019-03-11T21:12:12.310Z,53955.06
2019-03-11T21:14:43.976Z,53933.87
2019-03-11T21:17:25.214Z,53904.02
2019-03-11T21:19:47.448Z,53854.91
2019-03-11T21:22:18.500Z,53832.76
2019-03-11T21:24:59.121Z,53801.94
2019-03-11T21:27:21.708Z,53757.64
2019-03-11T21:29:52.404Z,53687.35
2019-03-11T21:32:23.143Z,53607.42
2019-03-11T21:34:53.838Z,53636.31
2019-03-11T21:37:24.443Z,53573.72
2019-03-11T21:39:55.244Z,53520.76
2019-03-11T21:42:26.004Z,53488.98
2019-03-11T21:44:56.614Z,53423.50
2019-03-11T21:47:27.565Z,53420.61
2019-03-11T21:49:58.163Z,53365.73
2019-03-11T21:52:28.787Z,53327.21
2019-03-11T21:54:59.615Z,53264.63
2019-03-11T21:57:31.440Z,53208.79
2019-03-11T22:00:02.887Z,53164.50
2019-03-11T22:02:33.573Z,53138.50
2019-03-11T22:05:04.947Z,53069.18
2019-03-11T22:07:36.099Z,53076.88
2019-03-11T22:10:07.609Z,53030.66
2019-03-11T22:12:38.222Z,53030.66
2019-03-11T22:15:10.178Z,53032.59
2019-03-11T22:17:40.866Z,52988.30
2019-03-11T22:20:13.704Z,53000.82
2019-03-11T22:22:44.486Z,53011.41
2019-03-11T22:25:15.685Z,52982.53
2019-03-11T22:27:46.675Z,52950.75
2019-03-11T22:30:19.480Z,52970.01
2019-03-11T22:32:50.412Z,52994.08
2019-03-11T22:35:21.305Z,52941.13
2019-03-11T22:37:52.053Z,52947.87
2019-03-11T22:40:22.938Z,52966.16
2019-03-11T22:42:53.499Z,52996.97
2019-03-11T22:45:24.832Z,52996.00
2019-03-11T22:47:55.420Z,52977.71
2019-03-11T22:50:26.313Z,53034.52
2019-03-11T22:52:57.182Z,53014.30
2019-03-11T22:55:28.044Z,53017.19
2019-03-11T22:57:58.627Z,53004.67
2019-03-11T23:00:58.733Z,52997.93
2019-03-11T23:03:29.899Z,53032.59
2019-03-11T23:06:01.071Z,53022.00
2019-03-11T23:08:32.667Z,53022.00
2019-03-11T23:11:03.463Z,53084.58
2019-03-11T23:13:34.329Z,53081.70
2019-03-11T23:16:04.943Z,53122.13
2019-03-11T23:18:36.029Z,53146.20
2019-03-11T23:21:06.739Z,53148.13
2019-03-11T23:23:37.457Z,53133.68
2019-03-11T23:26:08.207Z,53133.68
2019-03-11T23:28:38.872Z,53182.79
2019-03-11T23:31:09.665Z,53189.53
2019-03-11T23:33:40.256Z,53225.15
2019-03-11T23:36:12.364Z,53257.89
2019-03-11T23:38:44.831Z,53316.62
2019-03-11T23:41:16.529Z,53305.07
2019-03-11T23:43:49.773Z,53359.95
2019-03-11T23:46:21.547Z,53354.18
2019-03-11T23:48:54.498Z,53352.25
2019-03-11T23:51:25.144Z,53419.65
2019-03-11T23:53:55.889Z,53397.51
2019-03-11T23:56:26.799Z,53354.18
2019-03-11T23:58:57.927Z,53363.80
